Time;durP1;ratioP1;P1;durP2;ratioP2;P2;SDS_P1;SDS_P2;PMS_P1;PMS_P2;Temp;Humidity;BMP_temperature;BMP_pressure;BME280_temperature;BME280_humidity;BME280_pressure;Samples;Min_cycle;Max_cycle;Signal;HPM_P1;HPM_P2
2023/05/26 00:01:09;;;;;;;;;23.67;23.33;;;;;16.60;100.00;99829.47;6282104;20;3572191;-63
2023/05/26 00:03:38;;;;;;;;;24.50;22.50;;;;;16.45;100.00;99829.75;6276680;20;2840004;-63
2023/05/26 00:06:10;;;;;;;;;29.00;23.50;;;;;16.76;100.00;99829.88;6281471;20;2741010;-63
2023/05/26 00:08:38;;;;;;;;;27.67;24.67;;;;;16.38;100.00;99828.56;6314447;20;3580589;-63
2023/05/26 00:11:07;;;;;;;;;24.00;22.00;;;;;16.56;100.00;99826.16;6277988;20;2839863;-62
2023/05/26 00:13:35;;;;;;;;;24.67;23.00;;;;;16.45;100.00;99827.03;6280266;20;3583558;-63
2023/05/26 00:16:04;;;;;;;;;24.50;22.00;;;;;16.48;100.00;99827.78;6277607;20;2840911;-63
2023/05/26 00:18:33;;;;;;;;;23.00;21.33;;;;;16.66;100.00;99828.94;6280805;20;3570097;-63
2023/05/26 00:21:03;;;;;;;;;24.67;23.00;;;;;16.64;100.00;99820.06;6274179;20;2839931;-62
2023/05/26 00:23:31;;;;;;;;;28.00;27.00;;;;;16.82;100.00;99829.38;6314709;20;3597284;-63
2023/05/26 00:26:00;;;;;;;;;28.00;25.67;;;;;16.78;100.00;99819.81;6278388;20;2852619;-63
2023/05/26 00:28:28;;;;;;;;;19.67;17.67;;;;;16.62;100.00;99820.22;6311589;20;3571097;-62
2023/05/26 00:30:59;;;;;;;;;25.33;21.33;;;;;16.71;100.00;99824.00;6278560;20;3580555;-63
2023/05/26 00:33:27;;;;;;;;;28.67;25.33;;;;;16.58;100.00;99815.19;6278470;20;3601400;-63
2023/05/26 00:35:56;;;;;;;;;25.00;25.00;;;;;16.65;100.00;99819.09;6280854;20;3575239;-62
2023/05/26 00:38:24;;;;;;;;;26.33;25.33;;;;;16.70;100.00;99822.28;6279154;20;3586762;-63
2023/05/26 00:40:52;;;;;;;;;25.67;24.33;;;;;16.82;100.00;99817.69;6281253;20;3588200;-63
2023/05/26 00:43:21;;;;;;;;;27.00;25.00;;;;;16.76;100.00;99818.19;6277223;20;2843122;-62
2023/05/26 00:45:49;;;;;;;;;26.00;24.33;;;;;16.66;100.00;99812.69;6311900;20;3582581;-62
2023/05/26 00:48:17;;;;;;;;;25.67;25.67;;;;;16.72;100.00;99820.31;6277026;20;3592841;-63
2023/05/26 00:50:46;;;;;;;;;22.00;20.50;;;;;16.63;100.00;99818.38;6277260;20;2829811;-62
2023/05/26 00:53:16;;;;;;;;;23.50;23.50;;;;;16.51;100.00;99817.56;6277883;20;2839862;-62
2023/05/26 00:55:50;;;;;;;;;26.33;26.33;;;;;16.68;100.00;99818.84;6277532;20;3596185;-62
2023/05/26 00:58:19;;;;;;;;;30.00;23.33;;;;;16.38;100.00;99822.28;6279661;20;3599210;-62
2023/05/26 01:00:47;;;;;;;;;25.67;24.00;;;;;16.20;100.00;99816.56;6280099;20;3586717;-62
2023/05/26 01:03:18;;;;;;;;;26.67;24.00;;;;;16.35;100.00;99811.69;6281266;20;3577430;-63
2023/05/26 01:05:46;;;;;;;;;26.50;24.00;;;;;16.17;100.00;99809.53;6277259;20;2840895;-63
2023/05/26 01:08:14;;;;;;;;;26.50;22.50;;;;;16.12;100.00;99816.31;6274564;20;2882030;-62
2023/05/26 01:10:43;;;;;;;;;28.67;26.67;;;;;16.07;100.00;99808.56;6277164;20;3596115;-63
2023/05/26 01:13:15;;;;;;;;;25.67;24.67;;;;;16.15;100.00;99810.66;6277926;20;2850393;-62
2023/05/26 01:15:53;;;;;;;;;28.33;28.00;;;;;15.93;100.00;99809.72;6308622;20;3596126;-63
2023/05/26 01:18:41;;;;;;;;;25.67;24.67;;;;;16.13;100.00;99807.19;6280475;20;3592129;-63
2023/05/26 01:21:14;;;;;;;;;24.67;24.67;;;;;16.00;100.00;99805.50;6277631;20;3586865;-62
2023/05/26 01:24:07;;;;;;;;;28.67;28.67;;;;;16.10;100.00;99802.91;6276449;20;3601449;-62
2023/05/26 01:27:22;;;;;;;;;31.67;28.33;;;;;15.93;100.00;99800.72;6277195;20;3599223;-62
2023/05/26 01:29:50;;;;;;;;;27.00;25.33;;;;;16.06;100.00;99800.56;6273843;20;3588150;-63
2023/05/26 01:32:19;;;;;;;;;32.00;29.00;;;;;16.24;100.00;99805.34;6275769;20;3606507;-62
2023/05/26 01:34:48;;;;;;;;;28.67;26.33;;;;;16.18;100.00;99804.97;6308269;20;3591912;-62
2023/05/26 01:37:16;;;;;;;;;26.00;26.00;;;;;16.21;100.00;99791.16;6280719;20;3600241;-62
2023/05/26 01:39:45;;;;;;;;;24.33;24.33;;;;;16.14;100.00;99792.66;6273752;20;3590576;-62
2023/05/26 01:42:23;;;;;;;;;28.00;26.33;;;;;16.26;100.00;99788.94;6272883;20;3590006;-62
2023/05/26 01:45:10;;;;;;;;;31.00;29.67;;;;;16.08;100.00;99788.63;6257095;20;3603480;-62
2023/05/26 01:47:41;;;;;;;;;27.67;27.33;;;;;16.13;100.00;99785.53;6261860;20;3602462;-62
2023/05/26 01:50:12;;;;;;;;;28.00;27.00;;;;;16.27;100.00;99787.94;6267974;20;3598214;-62
2023/05/26 01:52:42;;;;;;;;;28.00;28.00;;;;;16.31;100.00;99789.41;6268175;20;3600373;-63
2023/05/26 01:55:12;;;;;;;;;29.00;27.67;;;;;16.37;100.00;99797.03;6267190;20;3610814;-62
2023/05/26 01:57:43;;;;;;;;;29.00;27.00;;;;;16.39;100.00;99795.03;6263541;20;2856791;-62
2023/05/26 02:00:12;;;;;;;;;28.00;25.67;;;;;16.39;100.00;99795.03;6297546;20;3596223;-62
2023/05/26 02:02:41;;;;;;;;;29.33;28.67;;;;;16.59;100.00;99793.38;6273869;20;2858840;-63
2023/05/26 02:05:10;;;;;;;;;31.00;29.67;;;;;16.49;100.00;99791.56;6307863;20;3604648;-62
2023/05/26 02:07:40;;;;;;;;;29.67;28.67;;;;;16.37;100.00;99794.31;6277154;20;3602367;-62
2023/05/26 02:10:09;;;;;;;;;26.00;24.00;;;;;16.36;100.00;99798.03;6279462;20;3585754;-63
2023/05/26 02:12:37;;;;;;;;;24.33;24.33;;;;;16.45;100.00;99796.38;6281722;20;3578374;-62
2023/05/26 02:15:06;;;;;;;;;30.67;27.67;;;;;16.40;100.00;99788.66;6279510;20;3598238;-63
2023/05/26 02:17:34;;;;;;;;;34.33;28.33;;;;;16.32;100.00;99787.56;6280152;20;3610790;-63
2023/05/26 02:20:08;;;;;;;;;25.33;23.33;;;;;16.25;100.00;99795.34;5622610;20;2842122;-63
2023/05/26 02:22:36;;;;;;;;;20.00;19.00;;;;;16.39;100.00;99797.75;6313572;20;2828410;-62
2023/05/26 02:25:05;;;;;;;;;32.33;28.33;;;;;16.46;100.00;99798.97;6279515;20;3608710;-62
2023/05/26 02:27:33;;;;;;;;;26.33;24.67;;;;;16.52;100.00;99796.72;6282037;20;3587863;-62
2023/05/26 02:30:03;;;;;;;;;25.67;25.67;;;;;16.16;100.00;99790.69;6276712;20;3594713;-65
2023/05/26 02:32:34;;;;;;;;;23.33;20.33;;;;;16.07;100.00;99802.31;6297021;20;2846296;-62
2023/05/26 02:35:03;;;;;;;;;26.00;24.00;;;;;15.96;100.00;99789.66;6307000;20;3593543;-61
2023/05/26 02:37:32;;;;;;;;;28.33;26.67;;;;;15.82;100.00;99796.16;6268635;20;3599411;-62
2023/05/26 02:40:00;;;;;;;;;29.67;27.67;;;;;15.98;100.00;99801.19;6269909;20;3600397;-62
2023/05/26 02:42:28;;;;;;;;;31.67;28.33;;;;;15.85;100.00;99804.06;6283547;20;3604424;-62
2023/05/26 02:44:56;;;;;;;;;24.00;23.00;;;;;15.82;100.00;99798.88;6281726;20;2788846;-62
2023/05/26 02:47:24;;;;;;;;;30.33;23.33;;;;;15.71;100.00;99798.91;6280616;20;3584631;-62
2023/05/26 02:49:54;;;;;;;;;32.67;29.67;;;;;15.65;100.00;99797.53;6281179;20;3605595;-62
2023/05/26 02:52:22;;;;;;;;;26.00;23.00;;;;;15.92;100.00;99797.16;6315177;20;3571123;-62
2023/05/26 02:54:51;;;;;;;;;28.33;27.33;;;;;15.94;100.00;99797.88;6281702;20;2850339;-62
2023/05/26 02:57:19;;;;;;;;;25.00;23.33;;;;;15.99;100.00;99790.25;6314361;20;3573177;-62
2023/05/26 02:59:47;;;;;;;;;25.67;24.33;;;;;15.70;100.00;99794.50;6278602;20;3574402;-62
2023/05/26 03:02:16;;;;;;;;;30.67;26.33;;;;;15.64;100.00;99793.09;6280111;20;3602376;-63
2023/05/26 03:04:44;;;;;;;;;28.67;27.00;;;;;15.63;100.00;99798.63;6285496;20;3602505;-62
2023/05/26 03:07:12;;;;;;;;;31.67;26.67;;;;;15.59;100.00;99807.00;6282282;20;3604458;-62
2023/05/26 03:09:40;;;;;;;;;30.33;25.33;;;;;15.59;100.00;99808.84;6281078;20;3582781;-61
2023/05/26 03:12:12;;;;;;;;;27.67;27.00;;;;;15.56;100.00;99801.84;6282261;20;3594078;-62
2023/05/26 03:14:40;;;;;;;;;26.00;23.33;;;;;15.50;100.00;99799.59;6286461;20;3567967;-62
2023/05/26 03:17:08;;;;;;;;;25.33;23.33;;;;;15.72;100.00;99800.66;6285374;20;3578407;-62
2023/05/26 03:19:37;;;;;;;;;25.00;23.67;;;;;15.59;100.00;99804.31;6277023;20;2842070;-61
2023/05/26 03:22:06;;;;;;;;;24.00;21.00;;;;;15.66;100.00;99810.06;6311800;20;2839976;-62
2023/05/26 03:24:54;;;;;;;;;27.67;25.00;;;;;15.62;100.00;99805.03;6284355;20;3584636;-62
2023/05/26 03:27:26;;;;;;;;;26.50;24.13;;;;;15.49;100.00;99808.72;6304132;20;3588804;-62
2023/05/26 03:29:54;;;;;;;;;25.00;24.00;;;;;15.70;100.00;99802.59;6279166;20;2842370;-62
2023/05/26 03:32:23;;;;;;;;;28.33;24.33;;;;;15.67;100.00;99811.81;6281010;20;2841027;-62
2023/05/26 03:34:52;;;;;;;;;24.33;23.33;;;;;15.57;100.00;99808.97;6314510;20;3560705;-61
2023/05/26 03:37:20;;;;;;;;;27.50;25.00;;;;;15.52;100.00;99811.19;6277766;20;2840909;-61
2023/05/26 03:39:48;;;;;;;;;26.00;23.00;;;;;15.51;100.00;99806.75;6282667;20;3577370;-62
2023/05/26 03:42:16;;;;;;;;;27.67;27.67;;;;;15.41;100.00;99813.03;6282078;20;3587787;-62
2023/05/26 03:44:45;;;;;;;;;26.33;23.67;;;;;15.55;100.00;99812.78;6281519;20;3582669;-61
2023/05/26 03:47:13;;;;;;;;;27.67;25.00;;;;;15.59;100.00;99809.72;6281728;20;3585796;-62
2023/05/26 03:49:42;;;;;;;;;29.33;26.67;;;;;15.71;100.00;99813.28;6279607;20;3604514;-62
2023/05/26 03:52:11;;;;;;;;;29.67;25.33;;;;;15.56;100.00;99809.97;6314265;20;3585756;-61
2023/05/26 03:54:40;;;;;;;;;25.67;25.00;;;;;15.85;100.00;99814.00;6279086;20;2852556;-61
2023/05/26 03:57:08;;;;;;;;;26.00;25.50;;;;;15.91;100.00;99814.38;6312316;20;2854437;-62
2023/05/26 03:59:36;;;;;;;;;30.00;28.33;;;;;15.87;100.00;99812.06;6275252;20;3602344;-61
2023/05/26 04:02:05;;;;;;;;;28.00;26.33;;;;;15.94;100.00;99814.13;6278184;20;3594087;-61
2023/05/26 04:04:34;;;;;;;;;33.00;28.33;;;;;15.87;100.00;99817.47;6284670;20;3611754;-62
2023/05/26 04:07:04;;;;;;;;;28.00;27.00;;;;;15.98;100.00;99818.31;6278797;20;3595163;-63
2023/05/26 04:09:33;;;;;;;;;35.00;26.00;;;;;16.10;100.00;99826.44;6276811;20;3513922;-62
2023/05/26 04:12:01;;;;;;;;;27.00;25.67;;;;;16.36;100.00;99824.25;6314581;20;3569010;-61
2023/05/26 04:14:29;;;;;;;;;24.33;22.67;;;;;16.44;100.00;99819.91;6282698;20;3586744;-61
2023/05/26 04:16:57;;;;;;;;;28.67;27.33;;;;;16.33;100.00;99824.53;6281274;20;3602889;-62
2023/05/26 04:19:26;;;;;;;;;28.00;27.67;;;;;16.57;100.00;99827.03;6281634;20;3587853;-61
2023/05/26 04:21:54;;;;;;;;;29.67;29.67;;;;;16.57;100.00;99822.47;6281252;20;3599246;-62
2023/05/26 04:24:23;;;;;;;;;26.67;26.33;;;;;16.88;100.00;99837.03;6281856;20;3604451;-61
2023/05/26 04:26:52;;;;;;;;;30.00;23.75;;;;;17.03;100.00;99839.41;6281941;20;3603361;-62
2023/05/26 04:29:20;;;;;;;;;25.67;23.33;;;;;17.19;100.00;99839.78;6312033;20;3587802;-62
2023/05/26 04:31:48;;;;;;;;;26.33;25.00;;;;;17.37;100.00;99848.19;6280800;20;3598186;-62
2023/05/26 04:34:21;;;;;;;;;29.00;24.00;;;;;17.64;100.00;99842.19;6278221;20;3602374;-62
2023/05/26 04:36:50;;;;;;;;;26.33;25.00;;;;;18.40;96.56;99853.47;6280433;20;2846116;-62
2023/05/26 04:39:18;;;;;;;;;28.00;24.00;;;;;17.85;98.11;99846.72;6313648;20;3579443;-62
2023/05/26 04:41:46;;;;;;;;;27.67;23.33;;;;;17.66;99.17;99848.31;6281762;20;3575359;-62
2023/05/26 04:44:15;;;;;;;;;23.67;22.00;;;;;17.87;100.00;99845.59;6277967;20;2833602;-62
2023/05/26 04:46:44;;;;;;;;;30.00;23.33;;;;;18.21;97.10;99854.28;6312422;20;3586833;-61
2023/05/26 04:49:16;;;;;;;;;24.00;21.33;;;;;18.37;95.81;99858.31;6279964;20;2841082;-61
2023/05/26 04:51:44;;;;;;;;;24.00;20.33;;;;;18.09;96.18;99859.97;6310142;20;3571198;-62
2023/05/26 04:54:13;;;;;;;;;42.00;36.33;;;;;18.42;95.76;99853.31;6273515;20;3602401;-62
2023/05/26 04:56:41;;;;;;;;;20.00;18.33;;;;;18.56;93.56;99863.81;6312387;20;3575219;-62
2023/05/26 04:59:11;;;;;;;;;27.67;26.67;;;;;18.47;94.08;99856.47;6275373;20;3604838;-62
2023/05/26 05:01:39;;;;;;;;;22.00;21.00;;;;;18.39;93.15;99861.75;6278581;20;3570055;-62
2023/05/26 05:04:07;;;;;;;;;25.33;21.00;;;;;18.51;92.32;99866.09;6279458;20;3575381;-63
2023/05/26 05:06:36;;;;;;;;;21.00;21.00;;;;;18.64;92.65;99865.78;6281463;20;3573243;-62
2023/05/26 05:09:05;;;;;;;;;26.33;23.67;;;;;20.86;84.02;99872.56;6280661;20;3600410;-62
2023/05/26 05:11:33;;;;;;;;;20.50;20.50;;;;;21.50;76.48;99871.41;6278210;20;2829562;-63
2023/05/26 05:14:02;;;;;;;;;22.67;20.33;;;;;20.17;85.44;99877.59;6276871;20;2836769;-62
2023/05/26 05:16:30;;;;;;;;;26.00;23.33;;;;;20.04;85.59;99866.19;6309769;20;3585774;-63
2023/05/26 05:18:58;;;;;;;;;21.00;18.00;;;;;19.94;85.70;99871.66;6281667;20;3579423;-63
2023/05/26 05:21:27;;;;;;;;;25.00;22.00;;;;;19.71;85.01;99868.44;6276124;20;2833654;-63
2023/05/26 05:23:55;;;;;;;;;20.00;20.00;;;;;19.86;86.24;99868.84;6285953;20;3568027;-63
2023/05/26 05:26:23;;;;;;;;;21.00;21.00;;;;;20.07;84.03;99874.06;6289145;20;3573221;-62
2023/05/26 05:28:51;;;;;;;;;19.00;19.00;;;;;20.03;84.32;99867.19;6287599;20;3569045;-62
2023/05/26 05:31:19;;;;;;;;;18.50;18.00;;;;;20.27;82.59;99867.47;6284269;20;2839888;-62
2023/05/26 05:33:48;;;;;;;;;23.33;22.67;;;;;20.35;82.10;99870.31;6288032;20;3582628;-63
2023/05/26 05:36:16;;;;;;;;;21.67;20.00;;;;;20.51;80.52;99879.66;6286984;20;3581513;-62
2023/05/26 05:38:44;;;;;;;;;25.67;21.67;;;;;20.41;80.84;99878.91;6286421;20;3578455;-62
2023/05/26 05:41:14;;;;;;;;;24.00;18.67;;;;;20.51;79.89;99885.13;6287431;20;3568259;-62
2023/05/26 05:43:42;;;;;;;;;19.00;19.00;;;;;20.54;78.91;99882.16;6285269;20;2838347;-62
2023/05/26 05:46:10;;;;;;;;;21.50;21.50;;;;;20.63;77.69;99883.94;6285553;20;2843094;-63
2023/05/26 05:48:42;;;;;;;;;22.33;20.67;;;;;20.68;77.14;99887.06;6286277;20;2846146;-63
2023/05/26 05:51:10;;;;;;;;;21.67;21.00;;;;;21.03;78.98;99883.47;6319734;20;3579414;-63
2023/05/26 05:53:38;;;;;;;;;20.00;14.50;;;;;20.91;76.83;99884.75;6285464;20;2822175;-63
2023/05/26 05:56:07;;;;;;;;;22.33;21.00;;;;;20.68;80.88;99878.88;6284617;20;2843194;-63
2023/05/26 05:58:35;;;;;;;;;21.00;19.67;;;;;21.13;80.39;99888.84;6316928;20;3566017;-63
2023/05/26 06:01:04;;;;;;;;;21.00;21.00;;;;;21.37;78.02;99890.06;6282363;20;2841064;-62
2023/05/26 06:03:33;;;;;;;;;23.67;20.67;;;;;21.38;74.85;99886.34;6320540;20;3569193;-63
2023/05/26 06:06:01;;;;;;;;;22.67;19.67;;;;;21.63;75.41;99893.69;6286447;20;3588786;-64
2023/05/26 06:08:30;;;;;;;;;22.00;21.00;;;;;21.79;75.69;99900.28;6285397;20;2831899;-63
2023/05/26 06:10:58;;;;;;;;;20.67;19.67;;;;;22.00;74.12;99898.00;6316337;20;3581507;-63
2023/05/26 06:13:26;;;;;;;;;25.00;22.00;;;;;21.97;71.29;99906.56;6287467;20;3584033;-63
2023/05/26 06:15:55;;;;;;;;;23.33;21.33;;;;;21.95;68.10;99915.94;6286359;20;3583724;-64
2023/05/26 06:18:24;;;;;;;;;23.00;21.67;;;;;22.22;67.00;99913.06;6287292;20;2846226;-64
2023/05/26 06:20:52;;;;;;;;;23.33;19.67;;;;;22.32;65.71;99915.63;6313897;20;3569127;-63
2023/05/26 06:23:20;;;;;;;;;19.67;19.67;;;;;22.05;64.18;99912.06;6283202;20;3575263;-64
2023/05/26 06:25:48;;;;;;;;;25.00;21.00;;;;;21.99;65.77;99915.47;6283284;20;3582621;-64
2023/05/26 06:28:17;;;;;;;;;25.33;25.00;;;;;22.39;63.60;99911.22;6286446;20;3586711;-64
2023/05/26 06:30:46;;;;;;;;;23.67;22.00;;;;;22.27;62.64;99918.00;6285349;20;2843107;-64
2023/05/26 06:33:14;;;;;;;;;21.67;20.00;;;;;22.64;64.51;99924.97;6318536;20;3561763;-63
2023/05/26 06:35:42;;;;;;;;;21.33;20.33;;;;;22.93;63.11;99930.91;6281631;20;3569011;-63
2023/05/26 06:38:10;;;;;;;;;24.00;20.33;;;;;23.24;61.10;99927.50;6285008;20;3571558;-64
2023/05/26 06:40:39;;;;;;;;;19.67;19.67;;;;;23.09;59.83;99931.94;6288459;20;3569188;-64
2023/05/26 06:43:08;;;;;;;;;23.00;22.00;;;;;23.64;59.02;99931.28;6285461;20;2836791;-64
2023/05/26 06:45:36;;;;;;;;;21.67;19.33;;;;;23.60;58.09;99927.19;6318427;20;3568078;-64
2023/05/26 06:48:04;;;;;;;;;24.67;22.00;;;;;23.58;58.95;99923.75;6287567;20;3582563;-63
2023/05/26 06:50:32;;;;;;;;;26.67;24.67;;;;;24.08;58.54;99930.88;6284935;20;3581536;-64
2023/05/26 06:53:00;;;;;;;;;34.00;29.67;;;;;24.10;56.66;99934.31;6285229;20;3602472;-64
2023/05/26 06:55:29;;;;;;;;;20.00;19.67;;;;;24.16;55.55;99939.09;6287178;20;3575276;-64
2023/05/26 06:57:58;;;;;;;;;24.33;21.00;;;;;24.62;54.79;99931.06;6284852;20;3581509;-64
2023/05/26 07:00:26;;;;;;;;;24.00;22.00;;;;;25.05;55.29;99934.22;6283902;20;3585702;-65
2023/05/26 07:02:54;;;;;;;;;22.00;19.67;;;;;24.81;52.52;99937.97;6282578;20;3566142;-64
2023/05/26 07:05:23;;;;;;;;;23.33;22.00;;;;;24.48;53.51;99938.13;6276247;20;3575443;-63
2023/05/26 07:07:51;;;;;;;;;19.33;17.33;;;;;24.30;54.05;99935.63;6284234;20;3564831;-63
2023/05/26 07:10:19;;;;;;;;;21.00;21.00;;;;;24.56;53.89;99934.50;6275736;20;3569109;-62
2023/05/26 07:12:48;;;;;;;;;22.00;20.67;;;;;24.94;54.18;99945.63;6277066;20;3563939;-63
2023/05/26 07:15:16;;;;;;;;;25.00;24.33;;;;;25.37;55.20;99937.78;6272674;20;3594239;-62
2023/05/26 07:17:44;;;;;;;;;20.67;19.33;;;;;25.70;51.78;99937.50;6280240;20;3572222;-63
2023/05/26 07:20:12;;;;;;;;;21.33;20.00;;;;;24.77;53.35;99941.25;6283001;20;3562747;-63
2023/05/26 07:22:40;;;;;;;;;25.33;21.33;;;;;25.01;52.70;99938.34;6284169;20;3577345;-64
2023/05/26 07:25:09;;;;;;;;;18.67;18.67;;;;;24.94;52.21;99937.41;6283886;20;3562866;-63
2023/05/26 07:27:38;;;;;;;;;23.25;22.50;;;;;25.01;53.22;99946.59;6286870;20;3595177;-63
2023/05/26 07:30:09;;;;;;;;;21.29;21.29;;;;;25.79;49.00;99947.41;6332189;20;3574199;-63
2023/05/26 07:32:38;;;;;;;;;19.00;19.00;;;;;25.67;49.51;99941.47;6284327;20;3559748;-63
2023/05/26 07:35:06;;;;;;;;;17.00;17.00;;;;;25.70;49.85;99943.00;6286196;20;3572144;-63
2023/05/26 07:37:35;;;;;;;;;24.00;21.33;;;;;25.89;49.81;99942.50;6283770;20;3579542;-64
2023/05/26 07:40:04;;;;;;;;;19.67;19.67;;;;;26.19;50.43;99945.28;6282524;20;3570078;-64
2023/05/26 07:42:33;;;;;;;;;22.67;20.67;;;;;26.59;49.17;99946.69;6285780;20;3570051;-64
2023/05/26 07:45:02;;;;;;;;;20.00;20.00;;;;;26.24;48.60;99951.06;6283464;20;3574215;-64
2023/05/26 07:47:31;;;;;;;;;20.33;20.33;;;;;26.21;48.69;99945.97;6281674;20;3560705;-63
2023/05/26 07:50:00;;;;;;;;;22.67;21.33;;;;;26.02;49.31;99948.22;6281606;20;3582549;-63
2023/05/26 07:52:29;;;;;;;;;20.33;18.67;;;;;26.51;50.66;99952.28;6279892;20;2842030;-64
2023/05/26 07:54:58;;;;;;;;;22.67;21.67;;;;;26.57;49.78;99953.44;6314816;20;3571078;-65
2023/05/26 07:57:29;;;;;;;;;22.83;19.83;;;;;26.52;48.72;99953.19;6338221;20;3575250;-65
2023/05/26 07:59:57;;;;;;;;;18.67;18.67;;;;;26.81;47.96;99953.16;6281498;20;3572184;-64
2023/05/26 08:02:27;;;;;;;;;25.00;24.67;;;;;26.81;48.53;99953.16;6286811;20;3591284;-64
2023/05/26 08:04:56;;;;;;;;;23.00;22.33;;;;;26.31;49.41;99957.53;6280744;20;3589877;-64
2023/05/26 08:07:27;;;;;;;;;21.57;21.57;;;;;26.95;48.46;99954.16;6333847;20;3579493;-64
2023/05/26 08:09:55;;;;;;;;;19.00;18.00;;;;;26.61;48.88;99963.06;6282944;20;3555553;-65
2023/05/26 08:12:24;;;;;;;;;24.67;22.33;;;;;26.28;49.31;99952.41;6283503;20;3578417;-64
2023/05/26 08:14:54;;;;;;;;;26.00;24.00;;;;;27.35;49.40;99962.88;6286457;20;3598177;-65
2023/05/26 08:17:23;;;;;;;;;24.33;22.67;;;;;26.98;47.40;99955.66;6314917;20;3580499;-65
2023/05/26 08:19:51;;;;;;;;;24.67;23.00;;;;;26.92;47.00;99960.91;6278633;20;3578426;-64
2023/05/26 08:22:20;;;;;;;;;24.00;21.67;;;;;27.14;47.69;99955.41;6283935;20;3582685;-65
2023/05/26 08:24:51;;;;;;;;;23.71;22.57;;;;;27.08;48.36;99954.28;6301701;20;3582642;-65
2023/05/26 08:27:20;;;;;;;;;25.33;20.33;;;;;27.41;47.56;99964.88;6276558;20;3582578;-65
2023/05/26 08:29:48;;;;;;;;;27.00;24.00;;;;;27.06;47.84;99950.88;6283790;20;3586799;-65
2023/05/26 08:32:16;;;;;;;;;24.33;21.67;;;;;26.75;49.15;99953.91;6282957;20;3573269;-64
2023/05/26 08:34:44;;;;;;;;;20.33;20.00;;;;;26.69;48.10;99955.53;6283779;20;3581546;-64
2023/05/26 08:37:13;;;;;;;;;24.33;24.33;;;;;26.98;48.25;99951.00;6283244;20;3588816;-66
2023/05/26 08:39:41;;;;;;;;;23.00;20.33;;;;;27.10;48.49;99962.38;6283522;20;3563816;-64
2023/05/26 08:42:19;;;;;;;;;23.25;23.25;;;;;27.03;47.78;99953.19;6281755;20;3589951;-64
2023/05/26 08:45:02;;;;;;;;;21.33;20.00;;;;;27.35;47.16;99960.13;6309380;20;3568055;-64
2023/05/26 08:47:35;;;;;;;;;24.67;24.33;;;;;27.49;47.40;99961.09;6310506;20;3594067;-64
2023/05/26 08:50:06;;;;;;;;;25.00;23.00;;;;;26.58;47.59;99957.94;6280451;20;3583593;-65
2023/05/26 08:52:37;;;;;;;;;24.67;24.67;;;;;27.54;47.92;99962.22;6279486;20;3586749;-65
2023/05/26 08:55:08;;;;;;;;;25.33;22.67;;;;;27.67;47.15;99952.34;6285746;20;3587772;-64
2023/05/26 08:57:39;;;;;;;;;22.75;21.50;;;;;27.50;48.98;99960.06;6280443;20;3583633;-65
2023/05/26 09:00:12;;;;;;;;;25.86;25.57;;;;;27.43;48.38;99951.72;6333673;20;3593045;-65
2023/05/26 09:02:41;;;;;;;;;25.00;24.00;;;;;28.06;48.64;99951.84;6289195;20;3587820;-66
2023/05/26 09:05:10;;;;;;;;;22.00;21.00;;;;;28.07;47.27;99947.16;6282957;20;3575463;-66
2023/05/26 09:07:40;;;;;;;;;23.33;19.00;;;;;27.42;48.55;99955.53;6316525;20;3567131;-63
2023/05/26 09:10:25;;;;;;;;;20.29;19.43;;;;;27.36;48.02;99956.31;6335517;20;3568157;-65
2023/05/26 09:13:04;;;;;;;;;21.86;21.29;;;;;27.33;48.94;99946.53;6306097;20;3584671;-61
2023/05/26 09:15:34;;;;;;;;;22.67;19.33;;;;;27.30;48.04;99949.66;6285188;20;3582658;-60
2023/05/26 09:18:11;;;;;;;;;25.33;21.33;;;;;27.45;48.24;99943.25;6287113;20;3584948;-60
2023/05/26 09:20:44;;;;;;;;;19.33;19.33;;;;;27.34;47.93;99941.88;6283818;20;3574332;-60
2023/05/26 09:23:16;;;;;;;;;22.67;21.67;;;;;27.92;47.19;99936.25;6285906;20;3574234;-61
2023/05/26 09:25:46;;;;;;;;;20.67;20.67;;;;;27.73;47.03;99949.66;6282284;20;3576358;-60
2023/05/26 09:28:15;;;;;;;;;23.00;22.00;;;;;27.88;45.21;99938.53;6281405;20;3580485;-60
2023/05/26 09:30:46;;;;;;;;;23.33;20.67;;;;;27.88;46.97;99937.69;6286679;20;3577339;-61
2023/05/26 09:33:18;;;;;;;;;26.00;24.00;;;;;28.03;45.39;99941.19;6281981;20;3586864;-61
2023/05/26 09:35:49;;;;;;;;;20.67;19.00;;;;;27.49;46.72;99931.63;6316489;20;3585766;-61
2023/05/26 09:38:21;;;;;;;;;23.57;22.29;;;;;27.83;47.57;99940.19;6328897;20;3577354;-61
2023/05/26 09:40:49;;;;;;;;;21.33;20.67;;;;;28.43;44.90;99935.91;6285249;20;3573293;-61
2023/05/26 09:43:22;;;;;;;;;24.33;22.33;;;;;27.86;44.90;99929.63;6285535;20;3582626;-60
2023/05/26 09:45:51;;;;;;;;;20.00;20.00;;;;;28.48;46.96;99935.34;6286756;20;3549443;-60
2023/05/26 09:48:19;;;;;;;;;19.33;17.67;;;;;27.88;47.26;99929.41;6284950;20;3569105;-61
2023/05/26 09:50:52;;;;;;;;;21.00;18.67;;;;;27.34;44.17;99928.94;6288836;20;3573644;-62
2023/05/26 09:53:21;;;;;;;;;20.33;20.33;;;;;27.14;45.17;99920.41;6283108;20;3586814;-60
2023/05/26 09:55:52;;;;;;;;;26.00;24.67;;;;;27.56;46.59;99923.41;6316952;20;3602707;-61
2023/05/26 09:58:25;;;;;;;;;23.50;22.00;;;;;28.57;46.45;99923.03;6281962;20;3587768;-61
2023/05/26 10:00:55;;;;;;;;;21.67;20.00;;;;;28.26;46.55;99916.06;6312940;20;3578459;-60
2023/05/26 10:03:27;;;;;;;;;25.29;21.43;;;;;28.28;46.39;99922.25;6332968;20;3583748;-61
2023/05/26 10:05:57;;;;;;;;;22.00;22.00;;;;;28.32;45.35;99917.16;6282333;20;3574357;-59
2023/05/26 10:08:30;;;;;;;;;21.00;21.00;;;;;28.72;45.94;99917.38;6280377;20;3581530;-60
2023/05/26 10:10:59;;;;;;;;;26.00;21.00;;;;;27.82;45.38;99920.03;6314294;20;3598267;-59
2023/05/26 10:13:28;;;;;;;;;20.00;20.00;;;;;27.97;46.54;99919.94;6283745;20;3572641;-60
2023/05/26 10:15:56;;;;;;;;;23.00;20.67;;;;;28.51;46.14;99921.94;6285362;20;3581630;-60
2023/05/26 10:18:25;;;;;;;;;26.67;23.33;;;;;27.95;45.56;99916.50;6285105;20;3584631;-60
2023/05/26 10:20:57;;;;;;;;;19.33;19.33;;;;;27.92;44.17;99916.91;6281081;20;3579506;-60
2023/05/26 10:23:39;;;;;;;;;22.67;22.00;;;;;28.02;44.65;99909.13;6285561;20;3573367;-60
2023/05/26 10:26:33;;;;;;;;;22.00;22.00;;;;;28.23;46.05;99911.81;6287984;20;3584668;-61
2023/05/26 10:29:06;;;;;;;;;24.00;20.67;;;;;27.80;46.56;99919.34;6285319;20;3573710;-60
2023/05/26 10:31:36;;;;;;;;;24.00;23.00;;;;;27.48;46.91;99904.22;6282207;20;3591914;-60
2023/05/26 10:34:38;;;;;;;;;21.00;21.00;;;;;28.17;46.43;99914.53;6333207;20;3568016;-60
2023/05/26 10:37:15;;;;;;;;;24.00;24.00;;;;;27.61;47.51;99909.00;6286518;20;3588936;-60
2023/05/26 10:39:44;;;;;;;;;21.67;21.67;;;;;27.81;46.86;99909.22;6284384;20;3589837;-60
2023/05/26 10:42:20;;;;;;;;;25.67;23.33;;;;;28.08;45.52;99901.94;6283993;20;3598176;-60
2023/05/26 10:44:54;;;;;;;;;16.67;16.00;;;;;27.27;45.86;99905.94;6278449;20;2831572;-60
2023/05/26 10:47:30;;;;;;;;;24.57;22.71;;;;;27.54;45.76;99898.78;6335040;20;3586836;-61
2023/05/26 10:49:59;;;;;;;;;24.50;23.50;;;;;28.05;45.47;99899.59;6285940;20;3594089;-60
2023/05/26 10:52:48;;;;;;;;;22.71;20.43;;;;;28.49;44.24;99907.50;6334357;20;3566914;-61
2023/05/26 10:55:45;;;;;;;;;22.33;21.00;;;;;27.56;44.53;99901.31;6286421;20;3578421;-60
2023/05/26 10:58:33;;;;;;;;;19.67;18.67;;;;;27.80;44.42;99902.78;6284119;20;3566016;-60
2023/05/26 11:01:08;;;;;;;;;21.00;21.00;;;;;27.51;46.25;99892.78;6288030;20;3582578;-60
2023/05/26 11:03:41;;;;;;;;;21.33;20.33;;;;;27.68;46.43;99896.13;6286123;20;3581580;-60
2023/05/26 11:06:16;;;;;;;;;22.33;22.33;;;;;28.38;44.06;99895.09;6282678;20;3579418;-60
2023/05/26 11:08:49;;;;;;;;;20.00;20.00;;;;;28.38;43.71;99888.72;6285843;20;3567979;-61
2023/05/26 11:11:29;;;;;;;;;23.00;21.67;;;;;28.21;43.80;99891.81;6282428;20;3573728;-60
2023/05/26 11:14:06;;;;;;;;;25.00;25.00;;;;;28.27;44.72;99886.53;6286566;20;3596126;-60